Time;durP1;ratioP1;P1;durP2;ratioP2;P2;SDS_P1;SDS_P2;PMS_P1;PMS_P2;Temp;Humidity;BMP_temperature;BMP_pressure;BME280_temperature;BME280_humidity;BME280_pressure;Samples;Min_cycle;Max_cycle;Signal;HPM_P1;HPM_P2
2021/11/03 00:01:35;;;;;;;5.60;5.07;;;8.20;87.80;;;;;;5033773;28;20455;-44
2021/11/03 00:04:04;;;;;;;7.13;5.00;;;8.10;87.90;;;;;;5012963;28;20440;-44
2021/11/03 00:06:31;;;;;;;5.90;5.20;;;8.10;87.90;;;;;;5022311;28;20455;-44
2021/11/03 00:09:00;;;;;;;6.40;5.60;;;8.10;87.80;;;;;;5028006;28;20454;-44
2021/11/03 00:11:28;;;;;;;6.70;4.80;;;8.10;87.70;;;;;;5030164;28;20539;-44
2021/11/03 00:13:55;;;;;;;5.70;5.10;;;8.10;87.80;;;;;;5029090;28;20509;-44
2021/11/03 00:16:22;;;;;;;6.53;4.90;;;8.10;87.80;;;;;;5027169;28;20466;-44
2021/11/03 00:18:49;;;;;;;5.33;4.83;;;8.10;87.80;;;;;;5027343;28;20509;-44
2021/11/03 00:21:16;;;;;;;6.27;5.20;;;8.00;87.80;;;;;;5032110;28;20440;-44
2021/11/03 00:23:43;;;;;;;11.40;5.20;;;8.10;87.80;;;;;;5026288;28;20484;-44
2021/11/03 00:26:10;;;;;;;8.70;5.20;;;8.10;87.70;;;;;;5028888;28;20451;-44
2021/11/03 00:28:37;;;;;;;6.03;5.47;;;8.10;87.70;;;;;;5027994;28;20488;-43
2021/11/03 00:31:04;;;;;;;6.13;5.33;;;8.10;87.60;;;;;;5026829;28;20461;-43
2021/11/03 00:33:33;;;;;;;5.50;4.67;;;8.10;87.80;;;;;;5032237;28;20482;-43
2021/11/03 00:36:00;;;;;;;7.00;5.57;;;8.00;87.80;;;;;;5035683;28;20514;-41
2021/11/03 00:38:28;;;;;;;5.30;4.80;;;8.00;87.90;;;;;;5012830;28;20550;-41
2021/11/03 00:40:56;;;;;;;6.10;4.90;;;8.00;88.10;;;;;;5025672;28;20824;-41
2021/11/03 00:43:22;;;;;;;6.83;5.50;;;8.00;88.10;;;;;;5025675;28;20468;-42
2021/11/03 00:45:50;;;;;;;6.03;5.37;;;8.00;88.00;;;;;;5025735;28;20996;-42
2021/11/03 00:48:17;;;;;;;5.80;5.20;;;8.00;87.90;;;;;;5003158;28;20463;-42
2021/11/03 00:50:45;;;;;;;7.17;5.23;;;8.00;87.90;;;;;;5027014;28;20459;-42
2021/11/03 00:53:12;;;;;;;5.87;4.70;;;8.00;88.10;;;;;;5026404;28;21013;-42
2021/11/03 00:55:41;;;;;;;6.27;5.67;;;8.00;88.20;;;;;;5028363;28;20981;-42
2021/11/03 00:58:08;;;;;;;8.60;5.27;;;8.00;88.20;;;;;;5028119;28;20486;-42
2021/11/03 01:00:35;;;;;;;6.00;5.50;;;8.00;88.30;;;;;;5009581;28;20515;-42
2021/11/03 01:03:03;;;;;;;7.00;5.40;;;8.00;88.20;;;;;;5026715;28;21025;-42
2021/11/03 01:05:30;;;;;;;6.20;5.40;;;8.00;88.30;;;;;;5023036;28;20493;-42
2021/11/03 01:07:57;;;;;;;5.77;5.17;;;8.00;88.20;;;;;;5009332;28;20459;-42
2021/11/03 01:10:24;;;;;;;6.37;4.60;;;8.00;88.30;;;;;;5011078;28;20852;-42
2021/11/03 01:12:52;;;;;;;6.27;5.67;;;8.00;88.40;;;;;;5029570;28;20484;-41
2021/11/03 01:15:22;;;;;;;11.53;5.90;;;8.00;88.20;;;;;;5029170;28;20504;-41
2021/11/03 01:17:54;;;;;;;5.30;4.80;;;8.00;88.30;;;;;;5028679;28;20471;-41
2021/11/03 01:20:22;;;;;;;5.70;5.10;;;8.00;88.30;;;;;;5025293;28;20552;-41
2021/11/03 01:22:49;;;;;;;5.80;4.90;;;8.00;88.40;;;;;;5014205;28;20455;-41
2021/11/03 01:25:16;;;;;;;6.20;5.60;;;7.90;88.50;;;;;;5026726;28;20820;-41
2021/11/03 01:27:43;;;;;;;9.20;5.50;;;8.00;88.40;;;;;;5031282;28;20958;-42
2021/11/03 01:30:13;;;;;;;7.30;6.33;;;8.00;88.40;;;;;;5029394;28;20464;-42
2021/11/03 01:32:40;;;;;;;5.50;5.00;;;7.90;88.50;;;;;;5011799;28;20487;-42
2021/11/03 01:35:08;;;;;;;6.10;5.47;;;7.90;88.50;;;;;;5025517;28;20455;-42
2021/11/03 01:37:35;;;;;;;5.60;5.03;;;8.00;88.60;;;;;;5030345;28;20461;-41
2021/11/03 01:40:05;;;;;;;7.33;5.73;;;7.90;88.60;;;;;;4995917;28;20443;-41
2021/11/03 01:42:33;;;;;;;11.13;5.60;;;8.00;88.60;;;;;;5007411;28;20459;-42
2021/11/03 01:45:01;;;;;;;5.80;5.30;;;7.90;88.70;;;;;;5028157;28;20968;-42
2021/11/03 01:47:43;;;;;;;6.60;5.20;;;8.00;88.80;;;;;;5009665;28;20490;-42
2021/11/03 01:50:30;;;;;;;5.07;4.67;;;8.00;88.40;;;;;;5031581;28;20455;-42
2021/11/03 01:53:13;;;;;;;5.63;4.90;;;8.00;88.40;;;;;;5031592;28;20487;-41
2021/11/03 01:55:52;;;;;;;5.57;5.07;;;8.00;88.00;;;;;;5026107;28;20443;-41
2021/11/03 01:58:23;;;;;;;5.97;4.80;;;7.90;88.00;;;;;;5025616;28;20456;-41
2021/11/03 02:00:52;;;;;;;5.37;4.40;;;7.90;88.00;;;;;;5024995;28;20454;-41
2021/11/03 02:03:24;;;;;;;6.50;5.37;;;7.90;87.90;;;;;;5029298;28;20463;-42
2021/11/03 02:05:59;;;;;;;5.40;4.77;;;7.80;88.00;;;;;;5029019;28;20460;-41
2021/11/03 02:08:28;;;;;;;5.73;4.67;;;7.80;88.10;;;;;;5028273;28;20466;-42
2021/11/03 02:10:55;;;;;;;5.70;4.20;;;7.80;88.10;;;;;;5027512;28;20455;-42
2021/11/03 02:13:24;;;;;;;5.30;4.80;;;7.80;87.90;;;;;;5025374;28;20589;-42
2021/11/03 02:15:51;;;;;;;8.37;5.27;;;7.80;88.00;;;;;;5007043;28;20468;-42
2021/11/03 02:18:20;;;;;;;5.30;4.80;;;7.80;88.00;;;;;;5026522;28;20451;-42
2021/11/03 02:20:50;;;;;;;5.50;5.00;;;7.80;88.00;;;;;;5025110;28;20538;-42
2021/11/03 02:23:35;;;;;;;5.77;4.83;;;7.80;88.00;;;;;;5022726;28;20937;-42
2021/11/03 02:26:12;;;;;;;4.60;4.20;;;7.80;88.10;;;;;;5018911;28;20455;-42
2021/11/03 02:28:43;;;;;;;7.20;5.40;;;7.80;88.20;;;;;;5024954;28;20483;-42
2021/11/03 02:31:31;;;;;;;7.53;5.50;;;7.80;88.20;;;;;;5025998;28;20865;-42
2021/11/03 02:33:59;;;;;;;6.67;5.87;;;7.80;88.30;;;;;;5026809;28;20499;-42
2021/11/03 02:36:26;;;;;;;13.40;10.20;;;7.80;88.30;;;;;;5023255;28;20485;-41
2021/11/03 02:38:53;;;;;;;10.70;8.10;;;7.80;88.30;;;;;;5028031;28;20448;-41
2021/11/03 02:41:23;;;;;;;14.03;8.47;;;7.80;88.40;;;;;;4996770;28;20451;-41
2021/11/03 02:44:09;;;;;;;9.30;7.00;;;7.80;88.50;;;;;;5026647;28;20455;-42
2021/11/03 02:46:36;;;;;;;12.80;6.93;;;7.80;88.70;;;;;;5009220;28;20463;-41
2021/11/03 02:49:02;;;;;;;11.10;7.40;;;7.80;88.80;;;;;;5004104;28;20452;-41
2021/11/03 02:51:36;;;;;;;11.43;6.87;;;7.80;89.00;;;;;;5026186;28;21017;-41
2021/11/03 02:54:23;;;;;;;11.00;7.60;;;7.80;89.00;;;;;;5023479;28;20494;-41
2021/11/03 02:56:53;;;;;;;10.23;7.40;;;7.90;89.20;;;;;;5007361;28;20560;-41
2021/11/03 02:59:25;;;;;;;10.70;7.80;;;7.90;89.20;;;;;;5029889;28;20460;-41
2021/11/03 03:01:57;;;;;;;10.07;7.97;;;7.90;89.30;;;;;;5026999;28;20487;-41
2021/11/03 03:04:28;;;;;;;7.73;6.43;;;7.90;89.40;;;;;;5015110;28;20467;-42
2021/11/03 03:06:56;;;;;;;9.33;6.20;;;7.90;89.50;;;;;;5027611;28;20463;-42
2021/11/03 03:09:23;;;;;;;9.13;6.83;;;7.90;89.60;;;;;;5031486;28;20460;-41
2021/11/03 03:11:56;;;;;;;8.10;7.00;;;7.90;89.50;;;;;;5029748;28;20460;-43
2021/11/03 03:14:26;;;;;;;13.60;9.20;;;8.00;89.50;;;;;;5028184;28;20827;-43
2021/11/03 03:16:54;;;;;;;11.77;7.70;;;8.00;89.60;;;;;;5040027;28;20486;-43
2021/11/03 03:19:21;;;;;;;10.37;9.07;;;8.00;89.60;;;;;;5041718;28;20961;-43
2021/11/03 03:21:48;;;;;;;16.93;9.60;;;8.00;89.70;;;;;;5031476;28;20494;-43
2021/11/03 03:24:16;;;;;;;12.87;9.73;;;8.00;89.80;;;;;;5034668;28;20467;-43
2021/11/03 03:26:43;;;;;;;15.10;10.90;;;8.10;89.80;;;;;;5011593;28;20490;-43
2021/11/03 03:29:11;;;;;;;13.10;11.33;;;8.10;89.80;;;;;;5028567;28;20498;-43
2021/11/03 03:31:38;;;;;;;16.33;12.17;;;8.10;89.80;;;;;;5029866;28;20494;-43
2021/11/03 03:34:10;;;;;;;12.57;10.87;;;8.10;89.80;;;;;;5024507;28;20494;-43
2021/11/03 03:36:38;;;;;;;17.27;10.90;;;8.10;89.80;;;;;;5024398;28;20452;-44
2021/11/03 03:39:08;;;;;;;15.60;10.57;;;8.10;89.80;;;;;;5031736;28;20457;-44
2021/11/03 03:41:37;;;;;;;16.83;11.77;;;8.10;89.80;;;;;;5026577;28;20938;-44
2021/11/03 03:44:05;;;;;;;15.60;11.80;;;8.20;89.80;;;;;;5026017;28;20843;-44
2021/11/03 03:46:31;;;;;;;13.70;10.53;;;8.20;89.80;;;;;;4998209;28;20476;-44
2021/11/03 03:48:58;;;;;;;14.30;10.90;;;8.20;89.80;;;;;;5026017;28;20467;-44
2021/11/03 03:51:26;;;;;;;12.10;10.30;;;8.20;89.80;;;;;;5026012;28;20861;-44
2021/11/03 03:53:53;;;;;;;15.13;10.80;;;8.20;89.80;;;;;;5028716;28;21081;-44
2021/11/03 03:56:21;;;;;;;16.73;11.60;;;8.20;89.80;;;;;;5025842;28;20478;-44
2021/11/03 03:58:49;;;;;;;16.20;11.30;;;8.30;89.80;;;;;;5019997;28;20452;-44
2021/11/03 04:01:20;;;;;;;16.37;13.37;;;8.30;89.80;;;;;;5004705;28;20460;-44
2021/11/03 04:03:51;;;;;;;21.33;14.90;;;8.30;89.80;;;;;;5019217;28;20478;-44
2021/11/03 04:06:18;;;;;;;16.90;13.00;;;8.30;89.80;;;;;;5030174;28;20455;-44
2021/11/03 04:08:45;;;;;;;16.03;11.67;;;8.30;89.80;;;;;;5012457;28;20994;-44
2021/11/03 04:11:12;;;;;;;18.07;9.83;;;8.30;89.80;;;;;;5024537;28;20464;-43
2021/11/03 04:13:39;;;;;;;19.80;11.30;;;8.30;89.80;;;;;;5026813;28;20479;-43
2021/11/03 04:16:07;;;;;;;15.20;10.80;;;8.30;89.80;;;;;;5019403;28;20456;-43
2021/11/03 04:18:34;;;;;;;15.87;10.50;;;8.40;89.80;;;;;;5013063;28;20966;-44
2021/11/03 04:21:01;;;;;;;13.77;9.80;;;8.40;89.80;;;;;;5026129;28;20464;-44
2021/11/03 04:23:28;;;;;;;13.80;10.23;;;8.40;89.80;;;;;;5028692;28;20832;-44
2021/11/03 04:25:56;;;;;;;13.77;10.57;;;8.40;89.80;;;;;;5011423;28;20478;-44
2021/11/03 04:28:22;;;;;;;18.17;12.00;;;8.40;89.80;;;;;;5027161;28;20491;-43
2021/11/03 04:30:49;;;;;;;18.57;11.37;;;8.40;89.80;;;;;;5027764;28;20467;-44
2021/11/03 04:33:18;;;;;;;21.10;13.50;;;8.40;89.80;;;;;;5007984;28;20611;-44
2021/11/03 04:35:47;;;;;;;16.80;12.50;;;8.40;89.80;;;;;;5026466;28;20486;-44
2021/11/03 04:38:15;;;;;;;17.50;13.23;;;8.40;89.80;;;;;;5029909;28;20538;-44
2021/11/03 04:40:42;;;;;;;17.60;13.47;;;8.50;89.80;;;;;;5028421;28;20467;-44
2021/11/03 04:43:09;;;;;;;18.20;12.50;;;8.50;89.80;;;;;;5026536;28;20471;-44
2021/11/03 04:45:36;;;;;;;19.30;13.50;;;8.50;89.80;;;;;;5025966;28;20801;-44
2021/11/03 04:48:03;;;;;;;15.47;11.20;;;8.50;89.80;;;;;;5025444;28;20522;-43
2021/11/03 04:50:31;;;;;;;14.60;10.93;;;8.50;89.80;;;;;;5026848;28;20997;-43
2021/11/03 04:52:58;;;;;;;14.07;10.60;;;8.50;89.80;;;;;;5026990;28;20494;-43
2021/11/03 04:55:25;;;;;;;17.50;10.67;;;8.40;89.80;;;;;;5026321;28;20558;-43
2021/11/03 04:57:53;;;;;;;13.40;9.07;;;8.40;89.80;;;;;;5027909;28;20991;-43
2021/11/03 05:00:24;;;;;;;9.13;7.77;;;8.50;89.80;;;;;;5025930;28;20486;-43
2021/11/03 05:02:51;;;;;;;11.13;8.30;;;8.40;89.80;;;;;;5016409;28;20983;-43
2021/11/03 05:05:19;;;;;;;10.70;7.73;;;8.40;89.80;;;;;;5009145;28;20495;-43
2021/11/03 05:07:47;;;;;;;13.13;7.87;;;8.40;89.80;;;;;;5010502;28;20538;-43
2021/11/03 05:10:14;;;;;;;10.70;6.50;;;8.40;89.80;;;;;;5024816;28;20466;-43
2021/11/03 05:12:41;;;;;;;8.70;7.13;;;8.40;89.80;;;;;;5024442;28;20838;-43
2021/11/03 05:15:08;;;;;;;7.53;6.83;;;8.40;89.80;;;;;;5019721;28;20466;-43
2021/11/03 05:17:35;;;;;;;10.67;7.70;;;8.40;89.80;;;;;;5032214;28;20453;-43
2021/11/03 05:20:04;;;;;;;9.63;8.63;;;8.40;89.80;;;;;;5032922;28;20819;-44
2021/11/03 05:22:31;;;;;;;9.87;8.20;;;8.40;89.80;;;;;;5010957;28;20979;-43
2021/11/03 05:24:58;;;;;;;9.80;8.80;;;8.40;89.80;;;;;;5026778;28;20456;-43
2021/11/03 05:27:25;;;;;;;14.50;10.50;;;8.40;89.80;;;;;;5028059;28;20455;-43
2021/11/03 05:29:52;;;;;;;10.47;9.30;;;8.40;89.80;;;;;;5029387;28;20483;-41
2021/11/03 05:32:19;;;;;;;9.20;7.53;;;8.40;89.80;;;;;;5027871;28;20984;-41
2021/11/03 05:34:46;;;;;;;8.67;6.80;;;8.40;89.80;;;;;;5029813;28;20537;-42
2021/11/03 05:37:14;;;;;;;10.73;8.07;;;8.40;89.80;;;;;;5005316;28;21164;-41
2021/11/03 05:39:42;;;;;;;9.07;7.90;;;8.40;89.80;;;;;;5013336;28;20473;-41
2021/11/03 05:42:09;;;;;;;8.60;6.97;;;8.40;89.80;;;;;;5026992;28;20537;-41
2021/11/03 05:44:37;;;;;;;8.50;7.70;;;8.40;89.80;;;;;;5010835;28;20459;-41
2021/11/03 05:47:05;;;;;;;9.70;6.60;;;8.40;89.80;;;;;;5027595;28;20460;-41
2021/11/03 05:49:33;;;;;;;10.07;7.37;;;8.40;89.80;;;;;;5025949;28;20447;-41
2021/11/03 05:52:02;;;;;;;9.43;7.67;;;8.40;89.80;;;;;;5005652;28;21116;-41
2021/11/03 05:54:30;;;;;;;10.70;8.03;;;8.40;89.80;;;;;;5023455;28;20491;-41
2021/11/03 05:56:58;;;;;;;9.20;7.43;;;8.40;89.80;;;;;;5023917;28;20490;-41
2021/11/03 05:59:25;;;;;;;10.47;7.43;;;8.40;89.80;;;;;;5026584;28;20455;-41
2021/11/03 06:01:52;;;;;;;11.60;8.30;;;8.40;89.80;;;;;;5008950;28;20464;-41
2021/11/03 06:04:19;;;;;;;8.97;6.80;;;8.40;89.80;;;;;;5030579;28;20537;-41
2021/11/03 06:06:46;;;;;;;12.10;8.23;;;8.40;89.80;;;;;;5028709;28;20494;-41
2021/11/03 06:09:12;;;;;;;10.53;8.03;;;8.40;89.80;;;;;;5029637;28;20547;-41
2021/11/03 06:11:42;;;;;;;9.73;7.80;;;8.40;89.80;;;;;;5024972;28;20467;-41
2021/11/03 06:14:10;;;;;;;9.20;7.27;;;8.40;89.80;;;;;;5026922;28;20489;-41
2021/11/03 06:16:37;;;;;;;12.03;7.63;;;8.40;89.80;;;;;;5006261;28;20465;-41
2021/11/03 06:19:04;;;;;;;8.80;6.90;;;8.40;89.80;;;;;;5031874;28;20509;-41
2021/11/03 06:21:32;;;;;;;9.73;7.90;;;8.40;89.80;;;;;;5022016;28;20531;-41
2021/11/03 06:24:00;;;;;;;8.90;7.10;;;8.40;89.80;;;;;;5020026;28;20550;-41
2021/11/03 06:26:28;;;;;;;8.93;7.80;;;8.40;89.80;;;;;;5023386;28;20459;-41
2021/11/03 06:28:55;;;;;;;9.67;7.67;;;8.40;89.80;;;;;;5027373;28;20494;-41
2021/11/03 06:31:22;;;;;;;11.07;8.73;;;8.40;89.80;;;;;;5021690;28;20467;-41
2021/11/03 06:33:52;;;;;;;8.83;7.30;;;8.40;89.80;;;;;;4982755;28;21066;-41
2021/11/03 06:36:20;;;;;;;9.17;6.97;;;8.40;89.80;;;;;;5028089;28;20463;-41
2021/11/03 06:38:47;;;;;;;10.50;7.07;;;8.40;89.80;;;;;;5026366;28;20465;-41
2021/11/03 06:41:19;;;;;;;9.40;6.97;;;8.40;89.80;;;;;;5028064;28;20917;-41
2021/11/03 06:43:46;;;;;;;9.00;6.37;;;8.40;89.80;;;;;;5015631;28;20951;-41
2021/11/03 06:46:13;;;;;;;10.20;7.10;;;8.50;89.80;;;;;;5029569;28;20455;-41
2021/11/03 06:48:40;;;;;;;9.23;7.33;;;8.50;89.80;;;;;;5013266;28;20474;-41
2021/11/03 06:51:08;;;;;;;8.90;6.80;;;8.60;89.80;;;;;;5027147;28;20967;-41
2021/11/03 06:53:36;;;;;;;7.63;6.80;;;8.60;89.80;;;;;;5012006;28;20501;-41
2021/11/03 06:56:04;;;;;;;9.13;7.13;;;8.60;89.80;;;;;;5010122;28;20466;-41
2021/11/03 06:58:33;;;;;;;10.83;7.60;;;8.50;89.80;;;;;;5028784;28;20455;-41
2021/11/03 07:01:00;;;;;;;10.23;8.37;;;8.50;89.80;;;;;;5026837;28;20458;-41
2021/11/03 07:03:28;;;;;;;9.87;6.90;;;8.60;89.80;;;;;;5029060;28;20462;-41
2021/11/03 07:05:55;;;;;;;11.30;6.73;;;8.60;89.80;;;;;;5029342;28;20456;-41
2021/11/03 07:08:23;;;;;;;7.70;5.70;;;8.60;89.80;;;;;;5012635;28;20463;-41
2021/11/03 07:10:53;;;;;;;8.47;6.40;;;8.60;89.80;;;;;;5015634;28;20459;-41
2021/11/03 07:13:22;;;;;;;10.60;7.07;;;8.60;89.80;;;;;;5029686;28;20467;-41
2021/11/03 07:15:49;;;;;;;8.53;6.80;;;8.60;89.80;;;;;;5029109;28;20464;-41
2021/11/03 07:18:16;;;;;;;11.93;6.37;;;8.60;89.80;;;;;;5012545;28;20451;-40
2021/11/03 07:20:45;;;;;;;8.10;6.67;;;8.60;89.80;;;;;;5031268;28;20841;-41
2021/11/03 07:23:13;;;;;;;8.43;6.37;;;8.60;89.80;;;;;;5030768;28;20455;-41
2021/11/03 07:25:41;;;;;;;9.20;7.20;;;8.70;89.80;;;;;;5029902;28;20463;-41
2021/11/03 07:28:08;;;;;;;7.77;6.37;;;8.60;89.80;;;;;;5029226;28;20492;-41
2021/11/03 07:30:38;;;;;;;9.53;5.57;;;8.70;89.80;;;;;;5028772;28;20459;-41
2021/11/03 07:33:08;;;;;;;9.47;5.70;;;8.70;89.80;;;;;;5026698;28;20451;-42
2021/11/03 07:35:36;;;;;;;6.33;5.70;;;8.70;89.80;;;;;;5027367;28;20848;-42
2021/11/03 07:38:04;;;;;;;9.27;6.90;;;8.70;89.80;;;;;;5023292;28;20460;-42
2021/11/03 07:40:39;;;;;;;12.10;7.17;;;8.70;89.80;;;;;;5032154;28;20463;-42
2021/11/03 07:43:07;;;;;;;9.97;7.40;;;8.80;89.80;;;;;;5029535;28;20465;-42
2021/11/03 07:45:35;;;;;;;8.93;6.50;;;8.80;89.80;;;;;;5027079;28;21026;-42
2021/11/03 07:48:03;;;;;;;8.07;6.20;;;8.70;89.80;;;;;;5010874;28;20458;-42
2021/11/03 07:50:34;;;;;;;11.77;6.90;;;8.70;89.80;;;;;;5004979;28;20452;-42
2021/11/03 07:53:01;;;;;;;9.33;6.17;;;8.80;89.80;;;;;;5028535;28;20463;-42
2021/11/03 07:55:27;;;;;;;10.33;7.10;;;8.80;89.80;;;;;;5023878;28;20483;-42
2021/11/03 07:57:55;;;;;;;11.27;6.30;;;8.80;89.80;;;;;;5028555;28;20466;-42
2021/11/03 08:00:28;;;;;;;8.60;6.50;;;8.80;89.80;;;;;;5031327;28;20475;-42
2021/11/03 08:02:56;;;;;;;10.57;7.20;;;8.80;89.80;;;;;;5026477;28;20529;-41
2021/11/03 08:05:27;;;;;;;13.07;8.20;;;8.80;89.80;;;;;;5027066;28;20512;-41
2021/11/03 08:07:57;;;;;;;11.70;7.70;;;8.80;89.80;;;;;;5021186;28;20542;-42
2021/11/03 08:10:24;;;;;;;6.80;6.10;;;8.80;89.80;;;;;;5029858;28;20827;-42
2021/11/03 08:12:56;;;;;;;9.37;7.37;;;8.80;89.80;;;;;;5011213;28;20542;-41
2021/11/03 08:15:24;;;;;;;9.43;7.10;;;8.80;89.80;;;;;;5025066;28;21018;-41
2021/11/03 08:17:52;;;;;;;9.30;6.33;;;8.80;89.80;;;;;;5030477;28;20456;-41
2021/11/03 08:20:24;;;;;;;12.33;8.53;;;8.80;89.80;;;;;;5030742;28;20460;-41
2021/11/03 08:22:56;;;;;;;12.70;10.70;;;8.80;89.80;;;;;;5027824;28;20536;-41
2021/11/03 08:25:24;;;;;;;11.33;8.50;;;8.80;89.80;;;;;;5027821;28;20464;-41
2021/11/03 08:27:51;;;;;;;7.60;6.80;;;8.80;89.80;;;;;;5025639;28;20452;-42
2021/11/03 08:30:19;;;;;;;11.27;6.53;;;8.80;89.80;;;;;;5024332;28;20466;-42
2021/11/03 08:32:52;;;;;;;9.40;7.23;;;8.80;89.80;;;;;;5011851;28;20463;-42
2021/11/03 08:35:22;;;;;;;9.33;6.60;;;8.80;89.80;;;;;;5023005;28;20498;-42
2021/11/03 08:37:50;;;;;;;7.70;6.90;;;8.80;89.80;;;;;;5024326;28;20465;-42
2021/11/03 08:40:21;;;;;;;8.50;7.60;;;8.80;89.80;;;;;;5027797;28;20446;-42
2021/11/03 08:42:48;;;;;;;13.63;8.00;;;8.80;89.80;;;;;;5022521;28;20465;-42
2021/11/03 08:45:15;;;;;;;8.50;7.43;;;8.80;89.80;;;;;;5027107;28;20525;-42
2021/11/03 08:47:43;;;;;;;9.83;6.33;;;8.80;89.80;;;;;;5006029;28;21824;-42
2021/11/03 08:50:16;;;;;;;6.50;5.27;;;8.80;89.80;;;;;;5022965;28;20471;-42
2021/11/03 08:52:43;;;;;;;10.90;7.50;;;8.80;89.80;;;;;;5027218;28;20474;-42
2021/11/03 08:55:10;;;;;;;8.67;6.40;;;8.80;89.80;;;;;;5026152;28;20482;-42
2021/11/03 08:57:39;;;;;;;11.03;6.17;;;8.90;89.80;;;;;;5006594;28;20822;-42
2021/11/03 09:00:14;;;;;;;8.07;4.80;;;8.90;89.80;;;;;;5026999;28;20451;-42
2021/11/03 09:02:42;;;;;;;7.10;6.33;;;8.90;89.80;;;;;;5029039;28;21015;-42
2021/11/03 09:05:09;;;;;;;10.00;6.80;;;8.90;89.80;;;;;;5031105;28;20460;-42
2021/11/03 09:07:36;;;;;;;8.10;5.77;;;8.90;89.80;;;;;;5027471;28;20465;-41
2021/11/03 09:10:06;;;;;;;6.73;4.43;;;8.90;89.80;;;;;;5023301;28;20459;-41
2021/11/03 09:12:33;;;;;;;7.00;5.67;;;8.90;89.80;;;;;;5025614;28;20459;-41
2021/11/03 09:15:00;;;;;;;6.30;5.07;;;8.90;89.80;;;;;;5026894;28;20487;-41
2021/11/03 09:17:27;;;;;;;6.10;5.17;;;9.00;89.80;;;;;;5010045;28;20460;-41
2021/11/03 09:19:55;;;;;;;7.20;5.00;;;9.00;89.80;;;;;;5011374;28;20453;-42
2021/11/03 09:22:22;;;;;;;5.43;4.60;;;9.00;89.80;;;;;;5002685;28;20463;-42
2021/11/03 09:24:49;;;;;;;7.03;5.40;;;9.00;89.80;;;;;;5021997;28;20468;-42
2021/11/03 09:27:16;;;;;;;8.33;5.30;;;9.00;89.80;;;;;;5025464;28;20465;-42
2021/11/03 09:29:48;;;;;;;8.23;5.07;;;9.00;89.80;;;;;;5024869;28;20490;-42
2021/11/03 09:32:18;;;;;;;7.93;5.10;;;9.00;89.80;;;;;;5019811;28;20466;-42
2021/11/03 09:34:50;;;;;;;9.00;5.23;;;9.00;89.80;;;;;;5006428;28;21018;-41
2021/11/03 09:37:21;;;;;;;7.17;5.43;;;9.10;89.80;;;;;;5003026;28;20475;-41
2021/11/03 09:39:51;;;;;;;9.87;5.70;;;9.10;89.80;;;;;;5026017;28;20617;-41
2021/11/03 09:42:19;;;;;;;8.57;5.27;;;9.10;89.80;;;;;;5000240;28;20512;-41
2021/11/03 09:44:50;;;;;;;8.83;5.80;;;9.10;89.80;;;;;;5025282;28;20463;-41
2021/11/03 09:47:28;;;;;;;8.87;5.53;;;9.10;89.80;;;;;;5022844;28;20566;-41
2021/11/03 09:50:16;;;;;;;9.77;5.40;;;9.20;89.80;;;;;;4978773;28;20451;-41
2021/11/03 09:52:53;;;;;;;8.63;4.73;;;9.20;89.80;;;;;;5024402;28;20467;-41
2021/11/03 09:55:21;;;;;;;7.50;5.70;;;9.10;89.80;;;;;;5024905;28;20858;-41
2021/11/03 09:58:02;;;;;;;4.90;4.50;;;9.20;89.80;;;;;;5025387;28;20486;-41
2021/11/03 10:00:48;;;;;;;5.83;4.23;;;9.20;89.80;;;;;;5025439;28;20972;-41
2021/11/03 10:03:33;;;;;;;6.40;4.60;;;9.20;89.80;;;;;;5022007;28;20460;-41
2021/11/03 10:06:09;;;;;;;7.83;5.27;;;9.30;89.80;;;;;;5023125;28;21088;-41
2021/11/03 10:08:40;;;;;;;6.30;4.50;;;9.30;89.80;;;;;;5021169;28;20474;-41
2021/11/03 10:11:32;;;;;;;8.13;5.60;;;9.30;89.80;;;;;;5026110;28;20451;-41
2021/11/03 10:14:00;;;;;;;5.70;4.80;;;9.20;89.80;;;;;;5019121;28;20478;-41
2021/11/03 10:16:33;;;;;;;5.83;5.27;;;9.30;89.80;;;;;;5011810;28;20459;-41
2021/11/03 10:19:10;;;;;;;6.20;5.60;;;9.30;89.80;;;;;;5021639;28;20962;-42
2021/11/03 10:21:41;;;;;;;5.77;5.17;;;9.30;89.80;;;;;;5010266;28;20447;-41
2021/11/03 10:24:14;;;;;;;7.00;5.80;;;9.30;89.80;;;;;;5003681;28;20455;-41
2021/11/03 10:26:56;;;;;;;8.67;6.27;;;9.30;89.80;;;;;;5027825;28;20464;-41
2021/11/03 10:29:30;;;;;;;9.50;5.20;;;9.30;89.80;;;;;;5022332;28;20534;-41
2021/11/03 10:32:03;;;;;;;8.03;5.70;;;9.30;89.80;;;;;;5007899;28;20493;-41
2021/11/03 10:34:45;;;;;;;8.23;6.00;;;9.30;89.80;;;;;;5022981;28;20546;-41
2021/11/03 10:37:25;;;;;;;8.37;6.47;;;9.30;89.80;;;;;;5027741;28;20450;-41
2021/11/03 10:40:18;;;;;;;7.10;5.60;;;9.30;89.80;;;;;;5024679;28;20463;-41
2021/11/03 10:42:45;;;;;;;6.63;5.93;;;9.30;89.80;;;;;;5024332;28;20452;-42
2021/11/03 10:45:15;;;;;;;7.77;6.80;;;9.30;89.80;;;;;;5023575;28;20470;-42
2021/11/03 10:47:52;;;;;;;8.90;6.57;;;9.40;89.80;;;;;;5008537;28;20469;-41
2021/11/03 10:50:30;;;;;;;8.93;6.40;;;9.40;89.80;;;;;;5020263;28;20538;-41
2021/11/03 10:53:18;;;;;;;8.60;7.03;;;9.40;89.80;;;;;;4990745;28;21156;-41
2021/11/03 10:55:51;;;;;;;10.03;8.20;;;9.50;89.80;;;;;;5007528;28;20490;-41
2021/11/03 10:58:31;;;;;;;9.27;7.80;;;9.50;89.80;;;;;;5022306;28;20742;-42
2021/11/03 11:01:00;;;;;;;9.87;8.07;;;9.60;89.80;;;;;;5023544;28;20841;-42
2021/11/03 11:03:48;;;;;;;8.77;7.87;;;9.60;89.80;;;;;;5023450;28;20463;-42
2021/11/03 11:06:28;;;;;;;11.30;8.30;;;9.60;89.80;;;;;;5026146;28;20451;-42
2021/11/03 11:09:10;;;;;;;8.53;7.63;;;9.70;89.80;;;;;;5007128;28;20471;-42
2021/11/03 11:11:40;;;;;;;11.20;8.50;;;9.70;89.80;;;;;;5021383;28;20462;-42
2021/11/03 11:14:19;;;;;;;9.60;8.53;;;9.70;89.80;;;;;;5026740;28;20461;-42
2021/11/03 11:17:14;;;;;;;8.50;7.60;;;9.70;89.80;;;;;;5022057;28;20830;-41
2021/11/03 11:20:11;;;;;;;12.07;7.50;;;9.70;89.80;;;;;;5031115;28;20459;-41
2021/11/03 11:22:44;;;;;;;8.33;7.47;;;9.80;89.80;;;;;;5026835;28;20462;-41
2021/11/03 11:25:19;;;;;;;9.50;7.33;;;9.80;89.80;;;;;;5028760;28;20470;-41
2021/11/03 11:28:16;;;;;;;8.00;6.90;;;9.70;89.80;;;;;;5029042;28;20466;-42
2021/11/03 11:31:01;;;;;;;8.10;7.27;;;9.70;89.80;;;;;;5026021;28;20459;-41
2021/11/03 11:33:39;;;;;;;8.33;7.40;;;9.80;89.80;;;;;;5012635;28;20633;-42
2021/11/03 11:36:15;;;;;;;9.63;7.07;;;9.80;89.80;;;;;;5028435;28;20498;-41
2021/11/03 11:38:54;;;;;;;7.87;6.10;;;9.80;89.80;;;;;;5015585;28;20794;-41
2021/11/03 11:41:35;;;;;;;8.40;7.10;;;9.80;89.80;;;;;;5027689;28;20458;-41
2021/11/03 11:44:11;;;;;;;8.30;6.70;;;9.80;89.80;;;;;;5028509;28;20482;-41
2021/11/03 11:46:38;;;;;;;8.10;6.63;;;9.80;89.80;;;;;;5031674;28;20467;-41
2021/11/03 11:49:16;;;;;;;9.70;7.30;;;9.80;89.80;;;;;;5025820;28;21049;-41
2021/11/03 11:51:47;;;;;;;8.50;7.67;;;9.80;89.80;;;;;;5027882;28;20463;-41
2021/11/03 11:54:18;;;;;;;8.80;7.90;;;9.80;89.80;;;;;;5028926;28;20463;-42
2021/11/03 11:57:20;;;;;;;9.77;7.47;;;9.90;89.80;;;;;;5028411;28;20496;-41
2021/11/03 11:59:56;;;;;;;8.30;7.50;;;9.90;89.80;;;;;;5030532;28;20469;-42
2021/11/03 12:02:24;;;;;;;9.03;7.07;;;9.90;89.80;;;;;;5028240;28;20513;-42
2021/11/03 12:05:23;;;;;;;8.30;7.40;;;9.90;89.80;;;;;;5026814;28;20466;-42
2021/11/03 12:08:20;;;;;;;9.00;6.90;;;9.90;89.80;;;;;;5026475;28;20493;-42
2021/11/03 12:11:02;;;;;;;9.20;7.67;;;9.80;89.80;;;;;;5003940;28;20470;-42
2021/11/03 12:13:31;;;;;;;7.27;6.50;;;9.80;89.80;;;;;;5024518;28;20471;-42
2021/11/03 12:15:59;;;;;;;6.83;6.13;;;9.90;89.80;;;;;;5027030;28;20603;-42
2021/11/03 12:18:41;;;;;;;8.13;7.33;;;9.90;89.80;;;;;;5027686;28;20501;-42
2021/11/03 12:21:12;;;;;;;11.13;6.60;;;9.90;89.80;;;;;;5013242;28;20444;-42
2021/11/03 12:23:55;;;;;;;7.23;6.40;;;9.90;89.80;;;;;;5011011;28;20464;-42
2021/11/03 12:26:28;;;;;;;7.50;6.80;;;9.90;89.80;;;;;;5029720;28;20463;-42
2021/11/03 12:29:00;;;;;;;11.67;7.70;;;10.00;89.80;;;;;;5026526;28;20478;-42
2021/11/03 12:31:50;;;;;;;12.63;6.80;;;10.00;89.80;;;;;;5027808;28;20463;-42
2021/11/03 12:34:28;;;;;;;12.03;8.10;;;10.00;89.80;;;;;;5026977;28;20470;-42
2021/11/03 12:37:04;;;;;;;9.00;7.10;;;10.00;89.80;;;;;;5011961;28;20487;-42
2021/11/03 12:39:31;;;;;;;9.60;7.90;;;10.00;89.80;;;;;;5025169;28;20459;-42
2021/11/03 12:42:18;;;;;;;9.90;7.90;;;10.00;89.80;;;;;;5026899;28;20443;-42
2021/11/03 12:44:47;;;;;;;10.17;8.90;;;10.10;89.80;;;;;;5028461;28;20460;-42
2021/11/03 12:47:24;;;;;;;9.23;8.30;;;10.00;89.80;;;;;;5025398;28;20459;-42
2021/11/03 12:50:06;;;;;;;11.93;8.40;;;10.10;89.80;;;;;;5010051;28;20965;-42
2021/11/03 12:52:47;;;;;;;9.20;8.30;;;10.10;89.80;;;;;;5024346;28;20459;-42
2021/11/03 12:55:26;;;;;;;8.27;7.33;;;10.10;89.80;;;;;;5021913;28;20488;-42
2021/11/03 12:57:54;;;;;;;12.33;7.97;;;10.10;89.80;;;;;;5028731;28;20951;-42
2021/11/03 13:00:25;;;;;;;9.87;7.17;;;10.20;89.80;;;;;;5026944;28;20459;-42
2021/11/03 13:02:58;;;;;;;8.10;7.37;;;10.20;89.80;;;;;;5011459;28;20448;-42
2021/11/03 13:05:32;;;;;;;8.83;6.87;;;10.10;89.80;;;;;;5027581;28;20467;-42
2021/11/03 13:08:29;;;;;;;8.73;6.87;;;10.10;89.80;;;;;;5027969;28;20460;-42
2021/11/03 13:11:11;;;;;;;8.67;7.77;;;10.10;89.80;;;;;;5027493;28;20546;-42
2021/11/03 13:13:45;;;;;;;8.30;7.40;;;10.20;89.80;;;;;;5030663;28;20459;-42